createdAt,value
2018-03-31T00:02:22.793Z,99952.14
2018-03-31T00:04:49.772Z,99940.81
2018-03-31T00:07:16.798Z,99940.16
2018-03-31T00:09:43.758Z,99929.12
2018-03-31T00:12:10.746Z,99924.03
2018-03-31T00:14:37.740Z,99914.59
2018-03-31T00:17:04.767Z,99907.16
2018-03-31T00:19:31.731Z,99901.61
2018-03-31T00:21:58.792Z,99892.18
2018-03-31T00:24:25.792Z,99888.73
2018-03-31T00:26:53.067Z,99899.98
2018-03-31T00:29:20.062Z,99897.06
2018-03-31T00:31:47.062Z,99898.31
2018-03-31T00:34:14.030Z,99896.65
2018-03-31T00:36:41.143Z,99893.09
2018-03-31T00:39:08.417Z,99899.80
2018-03-31T00:41:35.449Z,99895.33
2018-03-31T00:44:02.444Z,99881.02
2018-03-31T00:46:29.424Z,99885.50
2018-03-31T00:48:56.405Z,99874.11
2018-03-31T00:51:23.399Z,99875.98
2018-03-31T00:53:50.374Z,99872.25
2018-03-31T00:56:17.364Z,99860.53
2018-03-31T00:58:44.509Z,99862.61
2018-03-31T01:01:11.483Z,99867.82
2018-03-31T01:03:38.448Z,99869.14
2018-03-31T01:06:05.638Z,99868.53
2018-03-31T01:08:32.601Z,99871.28
2018-03-31T01:10:59.845Z,99862.60
2018-03-31T01:13:26.887Z,99866.08
2018-03-31T01:15:53.846Z,99861.70
2018-03-31T01:18:20.873Z,99858.22
2018-03-31T01:20:47.874Z,99854.82
2018-03-31T01:23:14.859Z,99859.45
2018-03-31T01:25:42.130Z,99866.13
2018-03-31T01:28:09.121Z,99860.53
2018-03-31T01:30:36.105Z,99852.98
2018-03-31T01:33:03.069Z,99846.30
2018-03-31T01:35:30.057Z,99840.41
2018-03-31T01:37:57.039Z,99843.40
2018-03-31T01:40:24.020Z,99846.28
2018-03-31T01:42:51.032Z,99849.08
2018-03-31T01:45:18.023Z,99848.17
2018-03-31T01:47:44.987Z,99853.30
2018-03-31T01:50:12.118Z,99853.71
2018-03-31T01:52:39.069Z,99855.45
2018-03-31T01:55:06.082Z,99855.60
2018-03-31T01:57:33.133Z,99848.33
2018-03-31T02:00:00.112Z,99841.28
2018-03-31T02:02:27.071Z,99837.73
2018-03-31T02:04:54.073Z,99840.64
2018-03-31T02:07:21.048Z,99836.93
2018-03-31T02:09:48.042Z,99832.78
2018-03-31T02:12:15.345Z,99827.19
2018-03-31T02:14:42.294Z,99823.23
2018-03-31T02:17:09.238Z,99818.26
2018-03-31T02:19:36.231Z,99822.28
2018-03-31T02:22:03.206Z,99807.09
2018-03-31T02:24:30.209Z,99805.94
2018-03-31T02:26:57.198Z,99793.22
2018-03-31T02:29:24.188Z,99793.64
2018-03-31T02:31:51.238Z,99788.67
2018-03-31T02:34:18.236Z,99787.33
2018-03-31T02:36:45.231Z,99782.77
2018-03-31T02:39:12.200Z,99781.97
2018-03-31T02:41:39.252Z,99779.64
2018-03-31T02:44:06.243Z,99783.42
2018-03-31T02:46:33.211Z,99789.45
2018-03-31T02:49:00.226Z,99792.27
2018-03-31T02:51:27.210Z,99785.36
2018-03-31T02:53:54.189Z,99777.93
2018-03-31T02:56:21.784Z,99771.56
2018-03-31T02:58:48.759Z,99768.83
2018-03-31T03:01:15.739Z,99761.94
2018-03-31T03:03:42.771Z,99753.97
2018-03-31T03:06:09.747Z,99745.12
2018-03-31T03:08:36.697Z,99751.61
2018-03-31T03:11:03.694Z,99757.54
2018-03-31T03:13:30.676Z,99742.30
2018-03-31T03:15:57.647Z,99739.97
2018-03-31T03:18:24.662Z,99732.20
2018-03-31T03:20:51.635Z,99737.66
2018-03-31T03:23:18.593Z,99720.34
2018-03-31T03:25:45.670Z,99714.55
2018-03-31T03:28:12.650Z,99717.38
2018-03-31T03:30:39.619Z,99714.22
2018-03-31T03:33:06.645Z,99714.91
2018-03-31T03:35:33.614Z,99709.56
2018-03-31T03:38:00.568Z,99714.91
2018-03-31T03:40:27.579Z,99733.91
2018-03-31T03:42:54.524Z,99723.95
2018-03-31T03:45:21.773Z,99726.27
2018-03-31T03:47:49.027Z,99722.13
2018-03-31T03:50:16.277Z,99716.10
2018-03-31T03:52:43.225Z,99717.84
2018-03-31T03:55:10.212Z,99728.24
2018-03-31T03:57:37.258Z,99732.45
2018-03-31T04:00:04.239Z,99727.91
2018-03-31T04:02:31.233Z,99721.88
2018-03-31T04:04:58.528Z,99720.24
2018-03-31T04:07:25.542Z,99726.69
2018-03-31T04:09:52.611Z,99718.83
2018-03-31T04:12:19.608Z,99718.90
2018-03-31T04:14:46.589Z,99707.62
2018-03-31T04:17:13.602Z,99699.94
2018-03-31T04:19:40.562Z,99700.61
2018-03-31T04:22:07.801Z,99695.69
2018-03-31T04:24:34.780Z,99698.61
2018-03-31T04:27:01.761Z,99698.82
2018-03-31T04:29:28.858Z,99694.97
2018-03-31T04:31:55.865Z,99693.64
2018-03-31T04:34:22.884Z,99692.92
2018-03-31T04:36:49.853Z,99690.78
2018-03-31T04:39:16.849Z,99694.38
2018-03-31T04:41:44.057Z,99693.42
2018-03-31T04:44:11.058Z,99686.14
2018-03-31T04:46:38.079Z,99689.56
2018-03-31T04:49:05.049Z,99683.04
2018-03-31T04:51:32.036Z,99685.75
2018-03-31T04:53:59.221Z,99673.33
2018-03-31T04:56:26.192Z,99673.90
2018-03-31T04:58:53.425Z,99683.22
2018-03-31T05:01:20.437Z,99686.73
2018-03-31T05:03:47.412Z,99680.39
2018-03-31T05:06:14.394Z,99677.36
2018-03-31T05:08:41.402Z,99678.11
2018-03-31T05:11:08.428Z,99674.07
2018-03-31T05:13:35.401Z,99668.28
2018-03-31T05:16:02.396Z,99679.11
2018-03-31T05:18:29.438Z,99679.11
2018-03-31T05:20:56.401Z,99682.01
2018-03-31T05:23:23.409Z,99683.67
2018-03-31T05:25:50.381Z,99683.56
2018-03-31T05:28:17.357Z,99681.77
2018-03-31T05:30:44.358Z,99683.36
2018-03-31T05:33:11.365Z,99684.41
2018-03-31T05:35:38.363Z,99685.83
2018-03-31T05:38:05.405Z,99685.89
2018-03-31T05:40:32.460Z,99679.38
2018-03-31T05:42:59.424Z,99677.65
2018-03-31T05:45:26.433Z,99671.14
2018-03-31T05:47:53.382Z,99663.77
2018-03-31T05:50:20.350Z,99664.69
2018-03-31T05:52:47.683Z,99653.80
2018-03-31T05:55:14.927Z,99648.67
2018-03-31T05:57:41.886Z,99655.18
2018-03-31T06:00:08.869Z,99654.11
2018-03-31T06:02:35.824Z,99651.63
2018-03-31T06:05:02.784Z,99648.25
2018-03-31T06:07:29.800Z,99648.50
2018-03-31T06:09:56.760Z,99637.86
2018-03-31T06:12:23.732Z,99629.78
2018-03-31T06:14:50.820Z,99623.93
2018-03-31T06:17:17.793Z,99625.89
2018-03-31T06:19:44.791Z,99618.14
2018-03-31T06:22:11.806Z,99614.33
2018-03-31T06:24:38.815Z,99612.36
2018-03-31T06:27:05.800Z,99601.13
2018-03-31T06:29:32.802Z,99593.95
2018-03-31T06:31:59.782Z,99591.16
2018-03-31T06:34:26.760Z,99590.48
2018-03-31T06:36:53.831Z,99589.09
2018-03-31T06:39:20.838Z,99595.19
2018-03-31T06:41:47.799Z,99592.91
2018-03-31T06:44:14.852Z,99590.42
2018-03-31T06:46:41.836Z,99595.13
2018-03-31T06:49:09.025Z,99603.30
2018-03-31T06:51:36.008Z,99601.23
2018-03-31T06:54:02.969Z,99598.42
2018-03-31T06:56:29.936Z,99600.22
2018-03-31T06:58:56.939Z,99602.05
2018-03-31T07:01:23.898Z,99608.33
2018-03-31T07:03:50.939Z,99607.34
2018-03-31T07:06:17.989Z,99602.22
2018-03-31T07:08:44.942Z,99594.30
2018-03-31T07:11:12.168Z,99593.80
2018-03-31T07:13:39.167Z,99596.61
2018-03-31T07:16:06.421Z,99595.55
2018-03-31T07:18:33.733Z,99588.09
2018-03-31T07:21:00.776Z,99590.25
2018-03-31T07:23:27.754Z,99583.98
2018-03-31T07:25:54.712Z,99583.48
2018-03-31T07:28:21.776Z,99571.92
2018-03-31T07:30:48.774Z,99575.33
2018-03-31T07:33:15.746Z,99569.88
2018-03-31T07:35:42.748Z,99564.85
2018-03-31T07:38:09.720Z,99568.14
2018-03-31T07:40:36.679Z,99566.89
2018-03-31T07:43:03.675Z,99558.65
2018-03-31T07:45:30.997Z,99560.80
2018-03-31T07:47:57.974Z,99557.91
2018-03-31T07:50:24.969Z,99555.02
2018-03-31T07:52:51.920Z,99550.74
2018-03-31T07:55:18.877Z,99566.92
2018-03-31T07:57:46.227Z,99566.98
2018-03-31T08:00:13.193Z,99565.91
2018-03-31T08:02:40.168Z,99560.20
2018-03-31T08:05:07.512Z,99557.81
2018-03-31T08:07:34.504Z,99558.64
2018-03-31T08:10:01.522Z,99558.89
2018-03-31T08:12:28.520Z,99551.23
2018-03-31T08:14:55.533Z,99549.63
2018-03-31T08:17:22.559Z,99535.53
2018-03-31T08:19:49.562Z,99534.19
2018-03-31T08:22:16.536Z,99532.27
2018-03-31T08:24:43.528Z,99527.23
2018-03-31T08:27:10.545Z,99524.20
2018-03-31T08:29:37.784Z,99525.12
2018-03-31T08:32:04.755Z,99526.25
2018-03-31T08:34:31.733Z,99525.25
2018-03-31T08:36:58.692Z,99518.08
2018-03-31T08:39:25.700Z,99509.00
2018-03-31T08:41:52.686Z,99510.05
2018-03-31T08:44:19.974Z,99504.33
2018-03-31T08:46:46.943Z,99494.91
2018-03-31T08:49:14.365Z,99509.94
2018-03-31T08:51:41.329Z,99514.56
2018-03-31T08:54:08.573Z,99501.44
2018-03-31T08:56:35.576Z,99502.09
2018-03-31T08:59:02.869Z,99504.66
2018-03-31T09:01:30.121Z,99519.50
2018-03-31T09:03:57.154Z,99512.34
2018-03-31T09:06:24.730Z,99517.57
2018-03-31T09:08:51.723Z,99512.77
2018-03-31T09:11:19.155Z,99499.40
2018-03-31T09:13:46.592Z,99500.36
2018-03-31T09:16:13.555Z,99486.19
2018-03-31T09:18:40.583Z,99488.99
2018-03-31T09:21:07.558Z,99481.94
2018-03-31T09:23:34.525Z,99482.48
2018-03-31T09:26:01.540Z,99473.89
2018-03-31T09:28:28.580Z,99467.91
2018-03-31T09:30:55.575Z,99467.36
2018-03-31T09:33:22.584Z,99473.93
2018-03-31T09:35:49.889Z,99470.66
2018-03-31T09:38:16.858Z,99472.14
2018-03-31T09:40:44.126Z,99460.48
2018-03-31T09:43:11.123Z,99464.84
2018-03-31T09:45:38.216Z,99462.05
2018-03-31T09:48:05.228Z,99451.03
2018-03-31T09:50:32.207Z,99450.16
2018-03-31T09:52:59.257Z,99440.27
2018-03-31T09:55:26.257Z,99436.73
2018-03-31T09:57:53.233Z,99427.77
2018-03-31T10:00:20.207Z,99414.32
2018-03-31T10:02:47.238Z,99409.20
2018-03-31T10:05:14.210Z,99407.05
2018-03-31T10:07:41.199Z,99407.09
2018-03-31T10:10:08.288Z,99399.95
2018-03-31T10:12:35.253Z,99397.74
2018-03-31T10:15:02.227Z,99414.89
2018-03-31T10:17:29.328Z,99429.29
2018-03-31T10:19:56.287Z,99442.56
2018-03-31T10:22:23.247Z,99439.89
2018-03-31T10:24:50.258Z,99440.96
2018-03-31T10:27:17.239Z,99439.02
2018-03-31T10:29:44.919Z,99442.38
2018-03-31T10:32:11.953Z,99445.92
2018-03-31T10:34:38.908Z,99445.46
2018-03-31T10:37:05.956Z,99451.48
2018-03-31T10:39:32.981Z,99447.19
2018-03-31T10:41:59.942Z,99457.14
2018-03-31T10:44:26.917Z,99449.00
2018-03-31T10:46:53.920Z,99448.28
2018-03-31T10:49:21.389Z,99445.93
2018-03-31T10:51:48.568Z,99449.08
2018-03-31T10:54:15.530Z,99442.50
2018-03-31T10:56:42.492Z,99446.45
2018-03-31T10:59:09.464Z,99445.13
2018-03-31T11:01:36.456Z,99443.22
2018-03-31T11:04:03.442Z,99448.58
2018-03-31T11:06:30.416Z,99447.19
2018-03-31T11:08:57.479Z,99444.27
2018-03-31T11:11:24.734Z,99440.33
2018-03-31T11:13:51.730Z,99440.81
2018-03-31T11:16:18.854Z,99431.93
2018-03-31T11:18:45.893Z,99444.36
2018-03-31T11:21:12.880Z,99454.22
2018-03-31T11:23:39.939Z,99450.25
2018-03-31T11:26:07.269Z,99448.48
2018-03-31T11:28:34.236Z,99450.31
2018-03-31T11:31:01.215Z,99442.36
2018-03-31T11:33:28.175Z,99435.38
2018-03-31T11:35:55.614Z,99434.27
2018-03-31T11:38:22.676Z,99431.37
2018-03-31T11:40:49.683Z,99428.63
2018-03-31T11:43:16.666Z,99425.86
2018-03-31T11:45:43.676Z,99429.84
2018-03-31T11:48:10.966Z,99422.45
2018-03-31T11:50:37.927Z,99408.95
2018-03-31T11:53:05.286Z,99398.30
2018-03-31T11:55:32.282Z,99413.61
2018-03-31T11:57:59.232Z,99404.57
2018-03-31T12:00:26.251Z,99400.69
2018-03-31T12:02:53.572Z,99402.34
2018-03-31T12:05:20.591Z,99398.45
2018-03-31T12:07:47.877Z,99393.08
2018-03-31T12:10:14.849Z,99389.52
2018-03-31T12:12:41.827Z,99385.53
2018-03-31T12:15:08.793Z,99392.92
2018-03-31T12:17:36.062Z,99395.75
2018-03-31T12:20:03.044Z,99382.97
2018-03-31T12:22:30.147Z,99382.28
2018-03-31T12:24:57.107Z,99379.89
2018-03-31T12:27:24.119Z,99376.09
2018-03-31T12:29:51.512Z,99372.19
2018-03-31T12:32:18.765Z,99380.28
2018-03-31T12:34:45.740Z,99377.64
2018-03-31T12:37:12.711Z,99369.44
2018-03-31T12:39:39.657Z,99367.36
2018-03-31T12:42:06.692Z,99359.98
2018-03-31T12:44:33.708Z,99362.38
2018-03-31T12:47:00.673Z,99354.42
2018-03-31T12:49:28.007Z,99353.10
2018-03-31T12:51:55.072Z,99350.47
2018-03-31T12:54:22.705Z,99355.66
2018-03-31T12:56:49.659Z,99346.97
2018-03-31T12:59:16.704Z,99358.56
2018-03-31T13:01:43.803Z,99366.31
2018-03-31T13:04:10.773Z,99373.48
2018-03-31T13:06:37.770Z,99380.86
2018-03-31T13:09:04.750Z,99381.34
2018-03-31T13:11:31.777Z,99383.11
2018-03-31T13:13:58.781Z,99382.15
2018-03-31T13:16:26.515Z,99384.78
2018-03-31T13:18:53.500Z,99375.70
2018-03-31T13:21:20.497Z,99372.32
2018-03-31T13:23:47.583Z,99373.75
2018-03-31T13:26:14.561Z,99371.74
2018-03-31T13:28:41.587Z,99377.80
2018-03-31T13:31:08.562Z,99376.22
2018-03-31T13:33:35.531Z,99375.88
2018-03-31T13:36:02.498Z,99384.48
2018-03-31T13:38:29.459Z,99379.89
2018-03-31T13:40:56.542Z,99386.27
2018-03-31T13:43:23.539Z,99382.06
2018-03-31T13:45:50.501Z,99383.70
2018-03-31T13:48:17.475Z,99377.06
2018-03-31T13:50:44.479Z,99372.59
2018-03-31T13:53:11.440Z,99363.83
2018-03-31T13:55:38.422Z,99357.52
2018-03-31T13:58:05.440Z,99349.08
2018-03-31T14:00:32.728Z,99345.73
2018-03-31T14:02:59.685Z,99341.60
2018-03-31T14:05:26.708Z,99343.05
2018-03-31T14:07:53.970Z,99351.04
2018-03-31T14:10:20.992Z,99351.13
2018-03-31T14:12:48.014Z,99342.75
2018-03-31T14:15:15.001Z,99347.84
2018-03-31T14:17:42.121Z,99339.71
2018-03-31T14:20:09.194Z,99337.36
2018-03-31T14:22:36.174Z,99337.56
2018-03-31T14:25:03.146Z,99332.94
2018-03-31T14:27:30.209Z,99337.05
2018-03-31T14:29:57.198Z,99334.30
2018-03-31T14:32:24.455Z,99338.02
2018-03-31T14:34:51.447Z,99338.98
2018-03-31T14:37:18.418Z,99343.07
2018-03-31T14:39:45.378Z,99352.19
2018-03-31T14:42:12.758Z,99351.13
2018-03-31T14:44:40.005Z,99338.61
2018-03-31T14:47:06.964Z,99335.25
2018-03-31T14:49:33.974Z,99336.16
2018-03-31T14:52:00.937Z,99340.77
2018-03-31T14:54:29.235Z,99339.44
2018-03-31T14:56:56.541Z,99340.19
2018-03-31T14:59:23.504Z,99338.34
2018-03-31T15:01:50.496Z,99339.98
2018-03-31T15:04:17.495Z,99339.00
2018-03-31T15:06:44.470Z,99340.01
2018-03-31T15:09:11.419Z,99340.42
2018-03-31T15:11:38.407Z,99332.98
2018-03-31T15:14:05.361Z,99326.00
2018-03-31T15:16:32.411Z,99323.09
2018-03-31T15:18:59.419Z,99319.46
2018-03-31T15:21:26.663Z,99322.18
2018-03-31T15:23:53.912Z,99313.86
2018-03-31T15:26:20.935Z,99315.66
2018-03-31T15:28:47.897Z,99313.31
2018-03-31T15:31:15.159Z,99306.20
2018-03-31T15:33:42.170Z,99306.89
2018-03-31T15:36:10.059Z,99302.58
2018-03-31T15:38:37.030Z,99307.37
2018-03-31T15:41:04.075Z,99311.12
2018-03-31T15:43:31.044Z,99307.33
2018-03-31T15:45:58.075Z,99302.46
2018-03-31T15:48:25.066Z,99307.21
2018-03-31T15:50:52.050Z,99298.02
2018-03-31T15:53:19.065Z,99300.84
2018-03-31T15:55:46.068Z,99296.77
2018-03-31T15:58:13.028Z,99301.58
2018-03-31T16:00:39.993Z,99304.31
2018-03-31T16:03:06.983Z,99301.16
2018-03-31T16:05:34.003Z,99303.12
2018-03-31T16:08:01.027Z,99296.29
2018-03-31T16:10:28.021Z,99298.44
2018-03-31T16:12:55.176Z,99298.26
2018-03-31T16:15:22.177Z,99294.09
2018-03-31T16:17:49.204Z,99292.68
2018-03-31T16:20:16.186Z,99295.83
2018-03-31T16:22:43.151Z,99294.42
2018-03-31T16:25:10.309Z,99290.44
2018-03-31T16:27:37.244Z,99295.52
2018-03-31T16:30:04.241Z,99295.28
2018-03-31T16:32:31.228Z,99291.16
2018-03-31T16:34:58.182Z,99298.38
2018-03-31T16:37:25.127Z,99299.18
2018-03-31T16:39:52.194Z,99304.43
2018-03-31T16:42:19.171Z,99307.26
2018-03-31T16:44:46.152Z,99306.25
2018-03-31T16:47:13.164Z,99308.66
2018-03-31T16:49:40.138Z,99309.89
2018-03-31T16:52:07.273Z,99304.25
2018-03-31T16:54:34.273Z,99310.50
2018-03-31T16:57:01.310Z,99312.66
2018-03-31T16:59:28.334Z,99310.39
2018-03-31T17:01:55.350Z,99309.57
2018-03-31T17:04:22.322Z,99309.17
2018-03-31T17:06:49.336Z,99305.50
2018-03-31T17:09:16.350Z,99308.34
2018-03-31T17:11:43.326Z,99308.16
2018-03-31T17:14:10.315Z,99311.73
2018-03-31T17:16:37.431Z,99310.39
2018-03-31T17:19:04.389Z,99313.37
2018-03-31T17:21:31.344Z,99314.19
2018-03-31T17:23:58.373Z,99320.81
2018-03-31T17:26:25.400Z,99317.15
2018-03-31T17:28:52.376Z,99320.94
2018-03-31T17:31:19.392Z,99324.73
2018-03-31T17:33:46.384Z,99324.69
2018-03-31T17:36:13.370Z,99321.21
2018-03-31T17:38:40.490Z,99325.09
2018-03-31T17:41:07.431Z,99331.22
2018-03-31T17:43:34.662Z,99329.70
2018-03-31T17:46:01.650Z,99335.17
2018-03-31T17:48:28.606Z,99331.95
2018-03-31T17:50:55.596Z,99336.78
2018-03-31T17:53:22.585Z,99337.28
2018-03-31T17:55:49.871Z,99329.75
2018-03-31T17:58:16.885Z,99334.87
2018-03-31T18:00:43.863Z,99333.40
2018-03-31T18:03:10.825Z,99331.81
2018-03-31T18:05:37.786Z,99328.98
2018-03-31T18:08:05.707Z,99334.55
2018-03-31T18:10:32.715Z,99332.67
2018-03-31T18:12:59.730Z,99331.23
2018-03-31T18:15:26.762Z,99339.19
2018-03-31T18:17:53.724Z,99335.80
2018-03-31T18:20:20.702Z,99338.13
2018-03-31T18:22:47.968Z,99342.58
2018-03-31T18:25:14.942Z,99335.91
2018-03-31T18:27:41.921Z,99339.41
2018-03-31T18:30:09.228Z,99342.28
2018-03-31T18:32:36.454Z,99343.11
2018-03-31T18:37:36.633Z,99336.73
2018-03-31T18:40:03.605Z,99340.46
2018-03-31T18:42:30.599Z,99336.91
2018-03-31T18:44:57.588Z,99339.46
2018-03-31T18:47:24.564Z,99347.41
2018-03-31T18:49:51.544Z,99342.61
2018-03-31T18:52:18.556Z,99337.73
2018-03-31T18:54:45.570Z,99338.29
2018-03-31T18:57:12.640Z,99334.64
2018-03-31T18:59:39.630Z,99333.41
2018-03-31T19:02:06.584Z,99331.52
2018-03-31T19:04:33.552Z,99333.58
2018-03-31T19:07:00.596Z,99330.02
2018-03-31T19:09:27.731Z,99334.49
2018-03-31T19:11:54.716Z,99333.20
2018-03-31T19:14:22.448Z,99326.73
2018-03-31T19:16:55.139Z,99321.66
2018-03-31T19:19:22.136Z,99328.05
2018-03-31T19:21:49.100Z,99321.55
2018-03-31T19:24:16.096Z,99313.05
2018-03-31T19:26:43.103Z,99311.55
2018-03-31T19:29:10.178Z,99310.78
2018-03-31T19:31:37.157Z,99313.72
2018-03-31T19:34:04.245Z,99309.22
2018-03-31T19:36:31.214Z,99315.55
2018-03-31T19:38:58.474Z,99320.66
2018-03-31T19:41:26.362Z,99317.34
2018-03-31T19:43:53.542Z,99316.02
2018-03-31T19:46:20.825Z,99319.34
2018-03-31T19:48:47.995Z,99317.98
2018-03-31T19:51:14.990Z,99307.90
2018-03-31T19:53:41.990Z,99311.22
2018-03-31T19:56:11.102Z,99308.84
2018-03-31T19:58:38.317Z,99321.75
2018-03-31T20:01:05.295Z,99317.48
2018-03-31T20:03:32.307Z,99319.41
2018-03-31T20:05:59.272Z,99314.44
2018-03-31T20:08:26.253Z,99320.23
2018-03-31T20:10:53.340Z,99323.80
2018-03-31T20:13:20.324Z,99322.65
2018-03-31T20:15:47.302Z,99323.70
2018-03-31T20:18:14.357Z,99325.27
2018-03-31T20:20:41.326Z,99322.95
2018-03-31T20:23:08.301Z,99330.15
2018-03-31T20:25:35.404Z,99334.78
2018-03-31T20:28:02.383Z,99330.85
2018-03-31T20:30:29.342Z,99324.98
2018-03-31T20:32:56.596Z,99324.41
2018-03-31T20:35:23.558Z,99334.92
2018-03-31T20:37:50.536Z,99331.11
2018-03-31T20:40:17.552Z,99344.09
2018-03-31T20:42:44.527Z,99353.49
2018-03-31T20:45:11.490Z,99342.50
2018-03-31T20:47:39.102Z,99338.05
2018-03-31T20:50:06.177Z,99343.34
2018-03-31T20:52:33.148Z,99340.20
2018-03-31T20:55:00.143Z,99339.38
2018-03-31T20:57:27.129Z,99331.14
2018-03-31T20:59:54.091Z,99335.41
2018-03-31T21:02:22.012Z,99329.50
2018-03-31T21:04:48.962Z,99327.61
2018-03-31T21:07:15.926Z,99330.30
2018-03-31T21:09:42.990Z,99332.02
2018-03-31T21:12:09.984Z,99328.13
2018-03-31T21:14:36.953Z,99332.40
2018-03-31T21:17:03.934Z,99336.25
2018-03-31T21:19:30.933Z,99340.59
2018-03-31T21:21:57.904Z,99332.78
2018-03-31T21:24:24.952Z,99323.16
2018-03-31T21:26:51.915Z,99321.10
2018-03-31T21:29:18.863Z,99321.47
2018-03-31T21:31:46.163Z,99318.05
2018-03-31T21:34:13.165Z,99322.31
2018-03-31T21:36:40.147Z,99316.83
2018-03-31T21:39:07.521Z,99322.23
2018-03-31T21:41:34.478Z,99319.78
2018-03-31T21:44:01.470Z,99320.47
2018-03-31T21:46:28.762Z,99323.53
2018-03-31T21:48:56.016Z,99321.80
2018-03-31T21:51:23.015Z,99320.48
2018-03-31T21:53:50.319Z,99318.68
2018-03-31T21:56:17.273Z,99321.56
2018-03-31T21:58:45.467Z,99323.88
2018-03-31T22:01:12.597Z,99322.39
2018-03-31T22:03:39.560Z,99321.61
2018-03-31T22:06:06.544Z,99319.09
2018-03-31T22:08:33.920Z,99317.32
2018-03-31T22:11:01.201Z,99324.70
2018-03-31T22:13:34.082Z,99327.47
2018-03-31T22:16:01.340Z,99333.52
2018-03-31T22:18:28.298Z,99329.97
2018-03-31T22:20:55.285Z,99331.48
2018-03-31T22:23:22.484Z,99332.85
2018-03-31T22:25:49.442Z,99331.66
2018-03-31T22:28:16.444Z,99325.36
2018-03-31T22:30:43.419Z,99326.93
2018-03-31T22:33:10.392Z,99326.84
2018-03-31T22:35:37.730Z,99327.34
2018-03-31T22:38:04.744Z,99325.72
2018-03-31T22:40:31.747Z,99330.34
2018-03-31T22:42:58.724Z,99322.67
2018-03-31T22:45:25.693Z,99322.20
2018-03-31T22:47:52.653Z,99326.00
2018-03-31T22:50:19.679Z,99321.86
2018-03-31T22:52:46.657Z,99318.53
2018-03-31T22:55:13.629Z,99318.14
2018-03-31T22:57:40.621Z,99317.98
2018-03-31T23:00:07.646Z,99317.04
2018-03-31T23:02:34.614Z,99318.39
2018-03-31T23:05:01.615Z,99313.28
2018-03-31T23:07:28.559Z,99310.69
2018-03-31T23:09:55.516Z,99318.36
2018-03-31T23:12:22.507Z,99319.41
2018-03-31T23:14:49.467Z,99322.87
2018-03-31T23:17:16.441Z,99324.19
2018-03-31T23:19:43.545Z,99318.14
2018-03-31T23:22:10.838Z,99320.76
2018-03-31T23:24:38.019Z,99323.95
2018-03-31T23:27:05.025Z,99317.02
2018-03-31T23:29:31.980Z,99312.23
2018-03-31T23:31:58.944Z,99317.32
2018-03-31T23:34:26.281Z,99315.03
2018-03-31T23:36:53.238Z,99313.80
2018-03-31T23:39:20.260Z,99315.34
2018-03-31T23:41:47.244Z,99310.42
2018-03-31T23:44:14.220Z,99313.80
2018-03-31T23:46:41.171Z,99310.34
2018-03-31T23:49:08.179Z,99315.61
2018-03-31T23:51:35.176Z,99318.47
2018-03-31T23:54:02.123Z,99317.73
2018-03-31T23:56:29.125Z,99320.51
2018-03-31T23:58:56.360Z,99324.19
